Time;durP1;ratioP1;P1;durP2;ratioP2;P2;SDS_P1;SDS_P2;PMS_P1;PMS_P2;Temp;Humidity;BMP_temperature;BMP_pressure;BME280_temperature;BME280_humidity;BME280_pressure;Samples;Min_cycle;Max_cycle;Signal;HPM_P1;HPM_P2
2021/06/16 00:02:22;;;;;;;12.18;7.22;;;;;;;;;;4905509;29;20060;-69
2021/06/16 00:05:27;;;;;;;11.77;6.57;;;;;;;;;;4917946;29;20117;-67
2021/06/16 00:08:31;;;;;;;11.57;6.90;;;;;;;;;;4905404;29;20059;-68
2021/06/16 00:11:36;;;;;;;15.40;6.20;;;;;;;;;;4917209;29;20397;-67
2021/06/16 00:14:41;;;;;;;14.73;6.28;;;;;;;;;;4917039;29;20404;-68
2021/06/16 00:17:45;;;;;;;15.57;6.60;;;;;;;;;;4917009;29;20047;-68
2021/06/16 00:20:49;;;;;;;12.38;6.55;;;;;;;;;;4916626;29;20055;-68
2021/06/16 00:23:53;;;;;;;14.98;6.70;;;;;;;;;;4917121;29;20054;-67
2021/06/16 00:26:58;;;;;;;14.02;6.55;;;;;;;;;;4917071;29;20047;-68
2021/06/16 00:30:04;;;;;;;16.60;6.63;;;;;;;;;;4916768;29;20059;-67
2021/06/16 00:33:08;;;;;;;10.48;6.30;;;;;;;;;;4916984;29;20047;-67
2021/06/16 00:36:12;;;;;;;10.85;6.63;;;;;;;;;;4916793;29;20047;-67
2021/06/16 00:39:17;;;;;;;17.73;6.50;;;;;;;;;;4916840;29;20067;-67
2021/06/16 00:42:24;;;;;;;9.90;6.57;;;;;;;;;;4916346;29;20534;-68
2021/06/16 00:45:29;;;;;;;14.55;7.15;;;;;;;;;;4916474;29;20040;-68
2021/06/16 00:48:33;;;;;;;14.15;6.32;;;;;;;;;;4916482;29;20051;-68
2021/06/16 00:51:39;;;;;;;16.38;7.47;;;;;;;;;;4916283;29;20046;-67
2021/06/16 00:54:43;;;;;;;18.60;6.18;;;;;;;;;;4916459;29;20047;-68
2021/06/16 00:57:48;;;;;;;8.27;5.57;;;;;;;;;;4916275;29;20043;-68
2021/06/16 01:01:09;;;;;;;15.38;5.40;;;;;;;;;;4916204;29;20044;-68
2021/06/16 01:04:14;;;;;;;9.00;4.78;;;;;;;;;;4916261;29;20475;-68
2021/06/16 01:07:19;;;;;;;9.15;5.03;;;;;;;;;;4915879;29;20044;-68
2021/06/16 01:10:24;;;;;;;7.32;4.82;;;;;;;;;;4915937;29;20040;-67
2021/06/16 01:13:38;;;;;;;8.00;4.47;;;;;;;;;;4916077;29;20044;-68
2021/06/16 01:17:02;;;;;;;11.90;4.55;;;;;;;;;;4915714;29;20409;-67
2021/06/16 01:20:10;;;;;;;7.30;4.57;;;;;;;;;;4915560;29;20400;-68
2021/06/16 01:23:40;;;;;;;7.03;4.32;;;;;;;;;;4915927;29;20047;-68
2021/06/16 01:26:45;;;;;;;9.20;4.78;;;;;;;;;;4907278;29;20044;-69
2021/06/16 01:29:50;;;;;;;12.15;4.45;;;;;;;;;;4915620;29;20036;-69
2021/06/16 01:32:55;;;;;;;9.85;4.20;;;;;;;;;;4915573;29;20059;-68
2021/06/16 01:36:00;;;;;;;9.32;4.07;;;;;;;;;;4893378;29;20044;-68
2021/06/16 01:39:07;;;;;;;11.05;4.10;;;;;;;;;;4915600;29;20040;-68
2021/06/16 01:42:14;;;;;;;11.20;4.55;;;;;;;;;;4903496;29;20166;-68
2021/06/16 01:45:20;;;;;;;9.45;4.60;;;;;;;;;;4915652;29;20052;-68
2021/06/16 01:48:25;;;;;;;8.75;3.90;;;;;;;;;;4915530;29;20040;-68
2021/06/16 01:51:30;;;;;;;8.52;4.07;;;;;;;;;;4915151;29;20040;-68
2021/06/16 01:54:35;;;;;;;7.97;4.00;;;;;;;;;;4914966;29;20044;-68
2021/06/16 01:57:40;;;;;;;11.27;3.92;;;;;;;;;;4903748;29;20485;-68
2021/06/16 02:00:45;;;;;;;9.48;3.80;;;;;;;;;;4914988;29;20384;-68
2021/06/16 02:03:49;;;;;;;8.70;3.80;;;;;;;;;;4916402;29;20044;-69
2021/06/16 02:07:06;;;;;;;11.43;3.63;;;;;;;;;;4915412;29;20040;-68
2021/06/16 02:10:11;;;;;;;10.60;3.97;;;;;;;;;;4915207;29;20059;-68
2021/06/16 02:13:16;;;;;;;5.40;3.83;;;;;;;;;;4914751;29;20047;-67
2021/06/16 02:16:39;;;;;;;5.97;4.07;;;;;;;;;;4915038;29;20040;-68
2021/06/16 02:19:43;;;;;;;9.65;4.55;;;;;;;;;;4914844;29;20505;-68
2021/06/16 02:22:48;;;;;;;9.02;4.30;;;;;;;;;;4914832;29;20052;-68
2021/06/16 02:25:53;;;;;;;8.70;4.28;;;;;;;;;;4914874;29;20453;-68
2021/06/16 02:28:57;;;;;;;7.68;4.15;;;;;;;;;;4903429;29;20033;-67
2021/06/16 02:32:02;;;;;;;9.48;4.60;;;;;;;;;;4903352;29;20043;-67
2021/06/16 02:35:07;;;;;;;8.07;4.25;;;;;;;;;;4914702;29;20485;-68
2021/06/16 02:38:13;;;;;;;8.73;4.00;;;;;;;;;;4914811;29;20529;-68
2021/06/16 02:41:18;;;;;;;9.77;4.82;;;;;;;;;;4914364;29;20060;-69
2021/06/16 02:44:24;;;;;;;7.82;4.00;;;;;;;;;;4914593;29;20048;-69
2021/06/16 02:47:29;;;;;;;8.75;4.32;;;;;;;;;;4914700;29;20492;-69
2021/06/16 02:50:34;;;;;;;7.75;4.70;;;;;;;;;;4914461;29;20044;-68
2021/06/16 02:53:39;;;;;;;9.82;5.32;;;;;;;;;;4914833;29;20040;-69
2021/06/16 02:56:44;;;;;;;10.95;5.45;;;;;;;;;;4915254;29;20060;-68
2021/06/16 02:59:52;;;;;;;10.13;5.15;;;;;;;;;;4903228;29;20062;-69
2021/06/16 03:02:57;;;;;;;16.90;5.28;;;;;;;;;;4914370;29;20075;-68
2021/06/16 03:06:02;;;;;;;8.52;4.85;;;;;;;;;;4903243;29;20039;-69
2021/06/16 03:09:06;;;;;;;9.52;5.28;;;;;;;;;;4918344;29;20040;-68
2021/06/16 03:12:11;;;;;;;8.95;4.90;;;;;;;;;;4896260;29;20508;-68
2021/06/16 03:15:16;;;;;;;8.68;4.80;;;;;;;;;;4918474;29;20044;-69
2021/06/16 03:18:22;;;;;;;9.52;4.93;;;;;;;;;;4918371;29;20032;-68
2021/06/16 03:21:27;;;;;;;8.60;4.63;;;;;;;;;;4917942;29;20055;-68
2021/06/16 03:24:32;;;;;;;7.10;4.47;;;;;;;;;;4919018;29;20378;-67
2021/06/16 03:27:37;;;;;;;6.47;4.82;;;;;;;;;;4918341;29;20044;-68
2021/06/16 03:30:41;;;;;;;10.75;4.65;;;;;;;;;;4906734;29;20036;-67
2021/06/16 03:33:46;;;;;;;9.15;4.75;;;;;;;;;;4917706;29;20051;-67
2021/06/16 03:36:52;;;;;;;9.52;5.00;;;;;;;;;;4917983;29;20385;-69
2021/06/16 03:39:56;;;;;;;8.68;5.07;;;;;;;;;;4917974;29;20056;-68
2021/06/16 03:43:01;;;;;;;10.57;4.93;;;;;;;;;;4919089;29;20044;-68
2021/06/16 03:46:07;;;;;;;11.00;5.15;;;;;;;;;;4918622;29;20039;-67
2021/06/16 03:49:14;;;;;;;9.35;4.90;;;;;;;;;;4918004;29;20047;-68
2021/06/16 03:52:21;;;;;;;9.60;5.20;;;;;;;;;;4918404;29;20039;-68
2021/06/16 03:55:25;;;;;;;10.90;5.95;;;;;;;;;;4917518;29;20611;-68
2021/06/16 03:58:30;;;;;;;11.30;5.78;;;;;;;;;;4917953;29;20063;-68
2021/06/16 04:01:37;;;;;;;13.55;5.63;;;;;;;;;;4917428;29;20048;-69
2021/06/16 04:04:41;;;;;;;7.97;5.28;;;;;;;;;;4917564;29;20043;-67
2021/06/16 04:07:51;;;;;;;12.00;5.07;;;;;;;;;;4918424;29;20044;-68
2021/06/16 04:10:56;;;;;;;9.90;4.93;;;;;;;;;;4917905;29;20063;-68
2021/06/16 04:14:02;;;;;;;9.35;4.97;;;;;;;;;;4907242;29;20040;-69
2021/06/16 04:17:06;;;;;;;11.90;5.95;;;;;;;;;;4919283;29;20378;-67
2021/06/16 04:20:11;;;;;;;13.75;6.25;;;;;;;;;;4918250;29;20503;-68
2021/06/16 04:23:17;;;;;;;13.13;6.63;;;;;;;;;;4919156;29;20051;-69
2021/06/16 04:26:23;;;;;;;24.48;6.85;;;;;;;;;;4917620;29;20047;-67
2021/06/16 04:29:27;;;;;;;14.65;6.68;;;;;;;;;;4917740;29;20338;-68
2021/06/16 04:32:32;;;;;;;16.75;6.13;;;;;;;;;;4917497;29;20044;-69
2021/06/16 04:35:36;;;;;;;12.93;5.97;;;;;;;;;;4918153;29;20055;-69
2021/06/16 04:38:40;;;;;;;14.57;6.10;;;;;;;;;;4917534;29;20047;-68
2021/06/16 04:41:45;;;;;;;16.65;6.10;;;;;;;;;;4916739;29;20057;-68
2021/06/16 04:44:49;;;;;;;24.88;5.95;;;;;;;;;;4918067;29;20043;-68
2021/06/16 04:47:55;;;;;;;23.88;5.18;;;;;;;;;;4917460;29;20392;-68
2021/06/16 04:50:59;;;;;;;14.15;4.60;;;;;;;;;;4917148;29;20052;-67
2021/06/16 04:54:03;;;;;;;7.20;4.30;;;;;;;;;;4905654;29;20043;-67
2021/06/16 04:57:08;;;;;;;9.55;4.32;;;;;;;;;;4917662;29;20048;-68
2021/06/16 05:00:13;;;;;;;20.33;5.13;;;;;;;;;;4916864;29;20040;-68
2021/06/16 05:03:17;;;;;;;10.43;5.85;;;;;;;;;;4917431;29;20058;-67
2021/06/16 05:06:21;;;;;;;11.23;5.38;;;;;;;;;;4906012;29;20052;-68
2021/06/16 05:09:26;;;;;;;12.43;5.63;;;;;;;;;;4916603;29;20051;-69
2021/06/16 05:12:30;;;;;;;20.10;5.95;;;;;;;;;;4917365;29;20053;-67
2021/06/16 05:15:35;;;;;;;10.35;5.95;;;;;;;;;;4916900;29;20055;-68
2021/06/16 05:18:44;;;;;;;23.02;5.85;;;;;;;;;;4915927;29;20047;-68
2021/06/16 05:21:49;;;;;;;19.35;6.00;;;;;;;;;;4916666;29;20067;-64
2021/06/16 05:24:53;;;;;;;12.80;5.35;;;;;;;;;;4904677;29;20047;-68
2021/06/16 05:27:58;;;;;;;9.43;5.47;;;;;;;;;;4915936;29;20043;-65
2021/06/16 05:31:02;;;;;;;15.30;5.55;;;;;;;;;;4915115;29;20036;-67
2021/06/16 05:34:07;;;;;;;15.45;5.43;;;;;;;;;;4904657;29;20150;-66
2021/06/16 05:37:11;;;;;;;12.90;5.22;;;;;;;;;;4904599;29;20058;-64
2021/06/16 05:40:16;;;;;;;9.15;4.55;;;;;;;;;;4916148;29;20051;-65
2021/06/16 05:43:21;;;;;;;12.07;4.95;;;;;;;;;;4916004;29;20051;-66
2021/06/16 05:46:27;;;;;;;15.52;5.35;;;;;;;;;;4916014;29;20059;-67
2021/06/16 05:49:31;;;;;;;14.65;5.22;;;;;;;;;;4915643;29;20051;-66
2021/06/16 05:52:36;;;;;;;11.80;4.65;;;;;;;;;;4915433;29;20039;-66
2021/06/16 05:55:40;;;;;;;13.55;4.88;;;;;;;;;;4914796;29;20058;-65
2021/06/16 05:58:45;;;;;;;7.55;4.72;;;;;;;;;;4915045;29;20047;-65
2021/06/16 06:01:49;;;;;;;12.20;4.50;;;;;;;;;;4904109;29;20068;-66
2021/06/16 06:04:53;;;;;;;14.70;4.60;;;;;;;;;;4915100;29;20044;-64
2021/06/16 06:07:58;;;;;;;13.98;4.50;;;;;;;;;;4915045;29;20047;-64
2021/06/16 06:11:03;;;;;;;11.68;4.35;;;;;;;;;;4914969;29;20047;-65
2021/06/16 06:14:08;;;;;;;13.55;4.65;;;;;;;;;;4914650;29;20193;-67
2021/06/16 06:17:15;;;;;;;15.75;4.72;;;;;;;;;;4914935;29;20047;-64
2021/06/16 06:20:19;;;;;;;13.13;4.25;;;;;;;;;;4914657;29;20050;-65
2021/06/16 06:23:24;;;;;;;12.50;4.40;;;;;;;;;;4913784;29;20055;-64
2021/06/16 06:26:28;;;;;;;8.70;3.97;;;;;;;;;;4914320;29;20517;-64
2021/06/16 06:29:33;;;;;;;12.18;4.05;;;;;;;;;;4915149;29;20377;-64
2021/06/16 06:32:38;;;;;;;11.95;4.18;;;;;;;;;;4902640;29;20039;-64
2021/06/16 06:35:42;;;;;;;23.60;4.90;;;;;;;;;;4914289;29;20098;-66
2021/06/16 06:38:47;;;;;;;17.10;4.35;;;;;;;;;;4914288;29;20043;-65
2021/06/16 06:41:51;;;;;;;15.43;4.70;;;;;;;;;;4916623;29;20055;-66
2021/06/16 06:44:56;;;;;;;10.98;4.30;;;;;;;;;;4918246;29;20043;-64
2021/06/16 06:48:00;;;;;;;17.83;4.50;;;;;;;;;;4918147;29;20039;-66
2021/06/16 06:51:05;;;;;;;12.80;4.82;;;;;;;;;;4918289;29;20503;-64
2021/06/16 06:54:09;;;;;;;12.48;4.38;;;;;;;;;;4919113;29;20164;-65
2021/06/16 06:57:14;;;;;;;16.17;4.15;;;;;;;;;;4918679;29;20043;-64
2021/06/16 07:00:18;;;;;;;21.83;4.13;;;;;;;;;;4918377;29;20510;-65
2021/06/16 07:03:22;;;;;;;25.45;4.60;;;;;;;;;;4917964;29;20059;-66
2021/06/16 07:06:27;;;;;;;16.92;4.45;;;;;;;;;;4917911;29;20067;-64
2021/06/16 07:09:32;;;;;;;19.08;5.63;;;;;;;;;;4905972;29;20044;-65
2021/06/16 07:12:36;;;;;;;19.45;5.03;;;;;;;;;;4918227;29;20388;-66
2021/06/16 07:15:41;;;;;;;25.08;5.32;;;;;;;;;;4918259;29;20055;-66
2021/06/16 07:18:45;;;;;;;16.58;4.60;;;;;;;;;;4906684;29;20047;-66
2021/06/16 07:21:49;;;;;;;13.23;4.50;;;;;;;;;;4918085;29;20063;-65
2021/06/16 07:24:53;;;;;;;16.50;5.03;;;;;;;;;;4917688;29;20393;-65
2021/06/16 07:27:58;;;;;;;12.70;4.60;;;;;;;;;;4917593;29;20503;-66
2021/06/16 07:31:02;;;;;;;15.32;5.05;;;;;;;;;;4917936;29;20047;-66
2021/06/16 07:34:06;;;;;;;22.38;5.30;;;;;;;;;;4917736;29;20213;-65
2021/06/16 07:37:11;;;;;;;19.17;5.50;;;;;;;;;;4917254;29;20051;-65
2021/06/16 07:40:16;;;;;;;22.23;4.72;;;;;;;;;;4917308;29;20231;-64
2021/06/16 07:43:21;;;;;;;16.58;5.10;;;;;;;;;;4917048;29;20063;-65
2021/06/16 07:46:25;;;;;;;21.10;4.28;;;;;;;;;;4918274;29;20059;-66
2021/06/16 07:49:30;;;;;;;15.05;4.53;;;;;;;;;;4917775;29;20401;-65
2021/06/16 07:52:35;;;;;;;9.90;3.90;;;;;;;;;;4916769;29;20063;-65
2021/06/16 07:55:40;;;;;;;16.40;4.43;;;;;;;;;;4917353;29;20048;-64
2021/06/16 07:58:44;;;;;;;14.98;3.70;;;;;;;;;;4917048;29;20185;-64
2021/06/16 08:01:48;;;;;;;11.48;3.45;;;;;;;;;;4917001;29;20060;-64
2021/06/16 08:04:53;;;;;;;18.58;3.35;;;;;;;;;;4916991;29;20054;-63
2021/06/16 08:07:58;;;;;;;10.52;3.67;;;;;;;;;;4917143;29;20041;-64
2021/06/16 08:11:03;;;;;;;14.60;4.35;;;;;;;;;;4917614;29;20051;-67
2021/06/16 08:14:07;;;;;;;15.13;4.22;;;;;;;;;;4916861;29;20055;-64
2021/06/16 08:17:12;;;;;;;17.35;4.05;;;;;;;;;;4916458;29;20048;-66
2021/06/16 08:20:16;;;;;;;12.52;3.97;;;;;;;;;;4904885;29;20051;-64
2021/06/16 08:23:20;;;;;;;18.27;4.22;;;;;;;;;;4916788;29;20051;-65
2021/06/16 08:26:24;;;;;;;10.45;3.60;;;;;;;;;;4916593;29;20047;-65
2021/06/16 08:29:29;;;;;;;12.00;3.88;;;;;;;;;;4916527;29;20400;-63
2021/06/16 08:32:34;;;;;;;11.93;3.20;;;;;;;;;;4916871;29;20389;-63
2021/06/16 08:35:39;;;;;;;11.90;3.60;;;;;;;;;;4916976;29;20055;-62
2021/06/16 08:38:46;;;;;;;12.45;3.08;;;;;;;;;;4916605;29;20048;-63
2021/06/16 08:41:51;;;;;;;8.82;2.78;;;;;;;;;;4916079;29;20051;-63
2021/06/16 08:44:58;;;;;;;8.43;3.42;;;;;;;;;;4905212;29;20111;-66
2021/06/16 08:48:02;;;;;;;13.32;3.03;;;;;;;;;;4904973;29;20382;-67
2021/06/16 08:51:08;;;;;;;16.38;3.25;;;;;;;;;;4917395;29;20051;-69
2021/06/16 08:54:12;;;;;;;12.00;3.28;;;;;;;;;;4904687;29;20503;-65
2021/06/16 08:57:17;;;;;;;17.83;2.70;;;;;;;;;;4916522;29;20051;-65
2021/06/16 09:00:22;;;;;;;8.50;3.00;;;;;;;;;;4916601;29;20039;-64
2021/06/16 09:03:27;;;;;;;9.13;2.95;;;;;;;;;;4915845;29;20402;-64
2021/06/16 09:06:34;;;;;;;12.52;4.35;;;;;;;;;;4915840;29;20032;-65
2021/06/16 09:09:38;;;;;;;11.60;3.30;;;;;;;;;;4915871;29;20059;-64
2021/06/16 09:12:53;;;;;;;11.60;2.90;;;;;;;;;;4916472;29;20059;-66
2021/06/16 09:15:58;;;;;;;12.15;3.15;;;;;;;;;;4915590;29;20043;-66
2021/06/16 09:19:03;;;;;;;5.40;3.17;;;;;;;;;;4915705;29;20491;-66
2021/06/16 09:22:08;;;;;;;8.93;2.88;;;;;;;;;;4915747;29;20386;-66
2021/06/16 09:25:12;;;;;;;10.32;3.13;;;;;;;;;;4916023;29;20044;-65
2021/06/16 09:28:17;;;;;;;9.63;3.10;;;;;;;;;;4917043;29;20051;-65
2021/06/16 09:31:23;;;;;;;11.90;2.97;;;;;;;;;;4915797;29;20048;-64
2021/06/16 09:34:27;;;;;;;7.97;3.17;;;;;;;;;;4915432;29;20071;-65
2021/06/16 09:37:41;;;;;;;6.25;2.60;;;;;;;;;;4913664;29;20032;-65
2021/06/16 09:40:45;;;;;;;5.68;2.60;;;;;;;;;;4903676;29;20402;-64
2021/06/16 09:43:55;;;;;;;6.63;2.60;;;;;;;;;;4915295;29;20508;-64
2021/06/16 09:47:12;;;;;;;6.32;2.47;;;;;;;;;;4893503;29;20401;-66
2021/06/16 09:50:21;;;;;;;3.90;2.50;;;;;;;;;;4916312;29;20481;-67
2021/06/16 09:53:25;;;;;;;5.00;2.38;;;;;;;;;;4915500;29;20044;-64
2021/06/16 09:56:33;;;;;;;5.13;2.28;;;;;;;;;;4915314;29;20044;-64
2021/06/16 09:59:38;;;;;;;4.97;2.03;;;;;;;;;;4915230;29;20476;-64
2021/06/16 10:02:43;;;;;;;7.15;2.00;;;;;;;;;;4915110;29;20048;-65
2021/06/16 10:06:06;;;;;;;7.88;2.30;;;;;;;;;;4915208;29;20040;-64
2021/06/16 10:09:10;;;;;;;10.23;3.60;;;;;;;;;;4914697;29;20044;-65
2021/06/16 10:12:18;;;;;;;10.73;3.95;;;;;;;;;;4915025;29;20051;-67
2021/06/16 10:15:23;;;;;;;6.80;3.42;;;;;;;;;;4914879;29;20400;-65
2021/06/16 10:18:28;;;;;;;8.80;3.53;;;;;;;;;;4915091;29;20044;-64
2021/06/16 10:21:32;;;;;;;13.30;3.55;;;;;;;;;;4914852;29;20040;-65
2021/06/16 10:24:36;;;;;;;12.75;3.35;;;;;;;;;;4892375;29;20065;-69
2021/06/16 10:27:42;;;;;;;10.88;2.80;;;;;;;;;;4915131;29;20043;-68
2021/06/16 10:30:52;;;;;;;9.05;2.88;;;;;;;;;;4914756;29;20433;-66
2021/06/16 10:33:58;;;;;;;12.38;3.58;;;;;;;;;;4915279;29;20366;-67
2021/06/16 10:37:04;;;;;;;12.45;3.38;;;;;;;;;;4914854;29;20205;-67
2021/06/16 10:40:17;;;;;;;11.32;3.95;;;;;;;;;;4914406;29;20397;-65
2021/06/16 10:43:42;;;;;;;13.38;3.15;;;;;;;;;;4914783;29;20055;-67
2021/06/16 10:46:57;;;;;;;11.60;3.67;;;;;;;;;;4903306;29;20421;-69
2021/06/16 10:50:02;;;;;;;9.20;3.60;;;;;;;;;;4914798;29;20062;-68
2021/06/16 10:53:06;;;;;;;13.70;3.90;;;;;;;;;;4914571;29;20040;-67
2021/06/16 10:56:11;;;;;;;12.32;3.42;;;;;;;;;;4892506;29;20130;-68
2021/06/16 10:59:15;;;;;;;13.00;3.20;;;;;;;;;;4902839;29;20047;-68
2021/06/16 11:02:26;;;;;;;8.63;3.30;;;;;;;;;;4914419;29;20047;-67
2021/06/16 11:05:34;;;;;;;6.95;2.85;;;;;;;;;;4914768;29;20048;-67
2021/06/16 11:08:47;;;;;;;6.07;3.30;;;;;;;;;;4914566;29;20484;-67
2021/06/16 11:11:53;;;;;;;9.77;3.53;;;;;;;;;;4914493;29;20036;-68
2021/06/16 11:14:58;;;;;;;11.77;3.67;;;;;;;;;;4914701;29;20044;-67
2021/06/16 11:18:03;;;;;;;8.68;3.55;;;;;;;;;;4913445;29;20052;-67
2021/06/16 11:21:16;;;;;;;12.63;5.10;;;;;;;;;;4902723;29;20044;-66
2021/06/16 11:24:21;;;;;;;7.28;3.35;;;;;;;;;;4913965;29;20117;-66
2021/06/16 11:27:44;;;;;;;8.23;3.03;;;;;;;;;;4914293;29;20048;-66
2021/06/16 11:30:54;;;;;;;11.15;3.30;;;;;;;;;;4918299;29;20052;-66
2021/06/16 11:33:59;;;;;;;15.25;3.33;;;;;;;;;;4918299;29;20047;-69
2021/06/16 11:37:03;;;;;;;6.15;2.95;;;;;;;;;;4895790;29;20055;-68
2021/06/16 11:40:08;;;;;;;6.85;2.92;;;;;;;;;;4917852;29;20032;-67
2021/06/16 11:43:29;;;;;;;4.63;2.88;;;;;;;;;;4917729;29;20048;-68
2021/06/16 11:46:35;;;;;;;8.65;3.60;;;;;;;;;;4917905;29;20048;-68
2021/06/16 11:49:39;;;;;;;12.57;3.55;;;;;;;;;;4905884;29;20044;-68
2021/06/16 11:52:55;;;;;;;16.67;3.58;;;;;;;;;;4917893;29;20050;-67
2021/06/16 11:56:01;;;;;;;16.45;4.25;;;;;;;;;;4917408;29;20047;-66
2021/06/16 11:59:06;;;;;;;20.15;3.65;;;;;;;;;;4917853;29;20047;-67
2021/06/16 12:02:19;;;;;;;11.63;3.42;;;;;;;;;;4917352;29;20055;-66
2021/06/16 12:05:27;;;;;;;8.55;3.22;;;;;;;;;;4905802;29;20063;-69
2021/06/16 12:08:31;;;;;;;7.88;3.78;;;;;;;;;;4917330;29;20044;-65
2021/06/16 12:11:37;;;;;;;7.07;3.00;;;;;;;;;;4917235;29;20056;-68
2021/06/16 12:14:41;;;;;;;7.35;3.15;;;;;;;;;;4917105;29;20048;-68
2021/06/16 12:18:01;;;;;;;6.35;3.17;;;;;;;;;;4917357;29;20048;-68
2021/06/16 12:21:06;;;;;;;7.43;2.63;;;;;;;;;;4917081;29;20380;-68
2021/06/16 12:24:21;;;;;;;17.90;3.92;;;;;;;;;;4916936;29;20040;-66
2021/06/16 12:27:32;;;;;;;7.75;3.63;;;;;;;;;;4905379;29;20063;-68
2021/06/16 12:30:38;;;;;;;13.15;3.80;;;;;;;;;;4916955;29;20052;-64
2021/06/16 12:37:04;;;;;;;13.05;2.80;;;;;;;;;;4916091;29;20055;-65
2021/06/16 12:40:11;;;;;;;19.83;3.13;;;;;;;;;;4916227;29;20051;-67
2021/06/16 12:43:23;;;;;;;11.00;2.67;;;;;;;;;;4916768;29;20059;-66
2021/06/16 12:46:28;;;;;;;7.90;2.90;;;;;;;;;;4916090;29;20059;-65
2021/06/16 12:49:39;;;;;;;8.30;2.88;;;;;;;;;;4916370;29;20405;-68
2021/06/16 12:52:44;;;;;;;14.27;3.20;;;;;;;;;;4916694;29;20512;-64
2021/06/16 12:55:55;;;;;;;10.82;3.28;;;;;;;;;;4916688;29;20408;-66
2021/06/16 12:59:00;;;;;;;16.65;3.25;;;;;;;;;;4916509;29;20128;-66
2021/06/16 13:02:05;;;;;;;9.57;3.00;;;;;;;;;;4916599;29;20054;-67
2021/06/16 13:05:11;;;;;;;14.25;3.20;;;;;;;;;;4916339;29;20056;-67
2021/06/16 13:08:15;;;;;;;10.10;3.20;;;;;;;;;;4916626;29;20055;-67
2021/06/16 13:11:19;;;;;;;16.05;3.58;;;;;;;;;;4916849;29;20127;-66
2021/06/16 13:14:27;;;;;;;7.75;2.55;;;;;;;;;;4915748;29;20055;-68
2021/06/16 13:17:48;;;;;;;15.32;3.38;;;;;;;;;;4916004;29;20484;-66
2021/06/16 13:20:56;;;;;;;12.73;3.67;;;;;;;;;;4915889;29;20047;-66
2021/06/16 13:24:03;;;;;;;9.50;3.30;;;;;;;;;;4915691;29;20059;-66
2021/06/16 13:27:08;;;;;;;13.35;3.42;;;;;;;;;;4904254;29;20366;-67
2021/06/16 13:30:12;;;;;;;12.27;3.60;;;;;;;;;;4916211;29;20038;-68
2021/06/16 13:33:48;;;;;;;9.02;3.42;;;;;;;;;;4914232;29;20071;-65
2021/06/16 13:36:53;;;;;;;4.63;2.92;;;;;;;;;;4916158;29;20040;-69
2021/06/16 13:39:59;;;;;;;12.50;2.42;;;;;;;;;;4915450;29;20047;-67
2021/06/16 13:43:03;;;;;;;5.25;2.78;;;;;;;;;;4915642;29;20067;-66
2021/06/16 13:46:08;;;;;;;9.45;3.20;;;;;;;;;;4914658;29;20052;-65
2021/06/16 13:49:12;;;;;;;7.35;3.50;;;;;;;;;;4915360;29;20369;-66
2021/06/16 13:52:20;;;;;;;11.63;2.85;;;;;;;;;;4915163;29;20044;-67
2021/06/16 13:55:26;;;;;;;10.05;3.20;;;;;;;;;;4915501;29;20047;-68
2021/06/16 13:58:30;;;;;;;10.52;3.45;;;;;;;;;;4903752;29;20043;-66
2021/06/16 14:01:34;;;;;;;11.68;3.03;;;;;;;;;;4915764;29;20039;-67
2021/06/16 14:04:38;;;;;;;17.50;4.07;;;;;;;;;;4915941;29;20515;-67
2021/06/16 14:07:43;;;;;;;15.55;3.72;;;;;;;;;;4915224;29;20054;-66
2021/06/16 14:10:48;;;;;;;10.73;3.53;;;;;;;;;;4915173;29;20043;-69
2021/06/16 14:13:53;;;;;;;7.53;3.33;;;;;;;;;;4916085;29;20051;-67
2021/06/16 14:16:57;;;;;;;19.33;3.83;;;;;;;;;;4915753;29;20036;-68
2021/06/16 14:20:01;;;;;;;11.60;3.97;;;;;;;;;;4915332;29;20593;-68
2021/06/16 14:23:10;;;;;;;8.07;3.83;;;;;;;;;;4903133;29;20062;-67
2021/06/16 14:26:15;;;;;;;15.63;3.97;;;;;;;;;;4915939;29;20040;-66
2021/06/16 14:29:19;;;;;;;7.78;3.63;;;;;;;;;;4915054;29;20047;-67
2021/06/16 14:32:23;;;;;;;9.50;4.00;;;;;;;;;;4914980;29;20059;-67
2021/06/16 14:35:28;;;;;;;4.68;2.95;;;;;;;;;;4915001;29;20048;-66
2021/06/16 14:38:32;;;;;;;8.57;3.45;;;;;;;;;;4902929;29;20044;-67
2021/06/16 14:41:36;;;;;;;9.35;3.50;;;;;;;;;;4915212;29;20052;-68
2021/06/16 14:44:42;;;;;;;7.57;3.30;;;;;;;;;;4914782;29;20052;-67
2021/06/16 14:47:46;;;;;;;14.75;4.20;;;;;;;;;;4915584;29;20370;-68
2021/06/16 14:50:52;;;;;;;6.28;3.08;;;;;;;;;;4915820;29;20051;-66
2021/06/16 14:53:57;;;;;;;14.35;3.20;;;;;;;;;;4915226;29;20048;-67
2021/06/16 14:57:02;;;;;;;11.70;2.92;;;;;;;;;;4915212;29;20380;-66
2021/06/16 15:00:06;;;;;;;7.22;3.13;;;;;;;;;;4914606;29;20070;-67
2021/06/16 15:03:11;;;;;;;12.07;3.28;;;;;;;;;;4905795;29;20044;-66
2021/06/16 15:06:15;;;;;;;7.00;3.50;;;;;;;;;;4918081;29;20142;-66
2021/06/16 15:09:20;;;;;;;8.25;3.33;;;;;;;;;;4917855;29;20044;-67
2021/06/16 15:12:24;;;;;;;16.25;3.60;;;;;;;;;;4918469;29;20032;-69
2021/06/16 15:15:30;;;;;;;10.68;2.85;;;;;;;;;;4920704;29;20308;-65
2021/06/16 15:18:34;;;;;;;10.23;3.40;;;;;;;;;;4917480;29;20074;-65
2021/06/16 15:21:39;;;;;;;6.88;3.22;;;;;;;;;;4917932;29;20047;-65
2021/06/16 15:24:53;;;;;;;9.40;3.60;;;;;;;;;;4917587;29;20056;-66
2021/06/16 15:28:00;;;;;;;7.82;3.42;;;;;;;;;;4905816;29;20044;-67
2021/06/16 15:31:09;;;;;;;6.72;3.83;;;;;;;;;;4917973;29;20453;-67
2021/06/16 15:34:13;;;;;;;12.50;4.07;;;;;;;;;;4906134;29;20508;-67
2021/06/16 15:37:17;;;;;;;8.60;3.40;;;;;;;;;;4905490;29;20055;-67
2021/06/16 15:40:22;;;;;;;15.90;6.35;;;;;;;;;;4919569;29;20040;-68
2021/06/16 15:43:26;;;;;;;9.60;3.47;;;;;;;;;;4917406;29;20059;-68
2021/06/16 15:46:31;;;;;;;12.60;3.33;;;;;;;;;;4905647;29;20044;-69
2021/06/16 15:49:35;;;;;;;11.30;4.30;;;;;;;;;;4917517;29;20051;-67
2021/06/16 15:52:39;;;;;;;9.20;3.58;;;;;;;;;;4905957;29;20057;-68
2021/06/16 15:55:43;;;;;;;11.05;4.07;;;;;;;;;;4917710;29;20052;-70
2021/06/16 15:58:48;;;;;;;8.10;3.90;;;;;;;;;;4917651;29;20047;-67
2021/06/16 16:01:52;;;;;;;7.82;3.60;;;;;;;;;;4915892;29;20488;-68
2021/06/16 16:04:56;;;;;;;7.65;3.60;;;;;;;;;;4906582;29;20044;-67
2021/06/16 16:08:01;;;;;;;14.30;4.40;;;;;;;;;;4917542;29;20032;-67
2021/06/16 16:11:05;;;;;;;12.23;4.20;;;;;;;;;;4917963;29;20516;-67
2021/06/16 16:14:11;;;;;;;25.80;14.75;;;;;;;;;;4904863;29;20047;-68
2021/06/16 16:17:15;;;;;;;10.75;4.95;;;;;;;;;;4918104;29;20051;-68
2021/06/16 16:20:20;;;;;;;11.07;4.15;;;;;;;;;;4906118;29;20058;-68
2021/06/16 16:23:24;;;;;;;10.02;4.03;;;;;;;;;;4917329;29;20405;-67
2021/06/16 16:26:29;;;;;;;12.02;4.20;;;;;;;;;;4906349;29;20055;-67
2021/06/16 16:29:35;;;;;;;7.15;3.33;;;;;;;;;;4907000;29;20051;-68
2021/06/16 16:32:39;;;;;;;13.82;5.55;;;;;;;;;;4916795;29;20485;-67
2021/06/16 16:35:44;;;;;;;18.88;4.32;;;;;;;;;;4916396;29;20039;-67
2021/06/16 16:38:48;;;;;;;8.30;3.30;;;;;;;;;;4916887;29;20142;-70
2021/06/16 16:41:52;;;;;;;10.57;3.70;;;;;;;;;;4916950;29;20147;-68
2021/06/16 16:44:57;;;;;;;14.73;5.80;;;;;;;;;;4904922;29;20401;-69
2021/06/16 16:48:02;;;;;;;19.05;6.25;;;;;;;;;;4916015;29;20063;-67
2021/06/16 16:51:06;;;;;;;19.38;4.13;;;;;;;;;;4915822;29;20049;-68
2021/06/16 16:54:15;;;;;;;12.32;5.18;;;;;;;;;;4915798;29;20516;-67
2021/06/16 16:57:19;;;;;;;17.20;5.93;;;;;;;;;;4915517;29;20047;-67
2021/06/16 17:00:24;;;;;;;12.57;5.85;;;;;;;;;;4916451;29;20142;-67
2021/06/16 17:03:30;;;;;;;18.30;9.43;;;;;;;;;;4916041;29;20063;-68
2021/06/16 17:06:34;;;;;;;9.82;4.90;;;;;;;;;;4916235;29;20051;-68
2021/06/16 17:09:39;;;;;;;17.00;6.43;;;;;;;;;;4916394;29;20625;-68
2021/06/16 17:12:45;;;;;;;13.70;4.38;;;;;;;;;;4904697;29;20051;-68
2021/06/16 17:15:50;;;;;;;15.90;6.72;;;;;;;;;;4916159;29;20043;-68
2021/06/16 17:18:54;;;;;;;9.45;4.47;;;;;;;;;;4904475;29;20319;-68
2021/06/16 17:21:58;;;;;;;12.52;4.60;;;;;;;;;;4916071;29;20044;-67
2021/06/16 17:25:03;;;;;;;14.48;6.47;;;;;;;;;;4892920;29;20055;-68
2021/06/16 17:28:07;;;;;;;12.95;4.78;;;;;;;;;;4914823;29;20047;-69
2021/06/16 17:31:11;;;;;;;9.57;3.92;;;;;;;;;;4916108;29;20047;-69
2021/06/16 17:34:16;;;;;;;12.25;4.40;;;;;;;;;;4902658;29;20044;-68
2021/06/16 17:37:20;;;;;;;13.93;4.13;;;;;;;;;;4913658;29;20055;-74
2021/06/16 17:40:24;;;;;;;10.40;4.28;;;;;;;;;;4902903;29;20416;-67
2021/06/16 17:43:29;;;;;;;10.50;3.88;;;;;;;;;;4915717;29;20063;-68
2021/06/16 17:46:33;;;;;;;11.48;3.88;;;;;;;;;;4914558;29;20051;-68
2021/06/16 17:49:38;;;;;;;8.50;3.70;;;;;;;;;;4915245;29;20039;-67
2021/06/16 17:52:43;;;;;;;16.45;4.82;;;;;;;;;;4915534;29;20044;-68
2021/06/16 17:55:48;;;;;;;9.48;3.88;;;;;;;;;;4903830;29;20043;-68
2021/06/16 17:58:52;;;;;;;13.35;4.28;;;;;;;;;;4915686;29;20044;-68
2021/06/16 18:01:57;;;;;;;12.25;5.10;;;;;;;;;;4915606;29;20472;-68
2021/06/16 18:05:04;;;;;;;14.20;4.57;;;;;;;;;;4915018;29;20059;-67
2021/06/16 18:08:08;;;;;;;10.65;3.55;;;;;;;;;;4915049;29;20046;-69
2021/06/16 18:11:12;;;;;;;14.38;3.70;;;;;;;;;;4915051;29;20063;-68
2021/06/16 18:14:17;;;;;;;9.32;3.95;;;;;;;;;;4915389;29;20456;-67
2021/06/16 18:17:22;;;;;;;11.20;3.92;;;;;;;;;;4914920;29;20040;-67
2021/06/16 18:20:27;;;;;;;13.55;4.18;;;;;;;;;;4914972;29;20240;-67
2021/06/16 18:23:31;;;;;;;18.98;4.28;;;;;;;;;;4914498;29;20075;-71
2021/06/16 18:26:35;;;;;;;16.60;4.80;;;;;;;;;;4902993;29;20055;-69
2021/06/16 18:29:40;;;;;;;12.73;4.53;;;;;;;;;;4914521;29;20055;-67